sensor_id;sensor_type;location;lat;lon;timestamp;temperature;humidity
6536;DHT22;34330;52.08032700;5.40923460;2023-11-19T00:00:37;16.50;99.90
6536;DHT22;34330;52.08032700;5.40923460;2023-11-19T00:03:05;16.50;99.90
6536;DHT22;34330;52.08032700;5.40923460;2023-11-19T00:05:35;16.50;99.90
6536;DHT22;34330;52.08032700;5.40923460;2023-11-19T00:08:03;16.50;99.90
6536;DHT22;34330;52.08032700;5.40923460;2023-11-19T00:10:32;16.50;99.90
6536;DHT22;34330;52.08032700;5.40923460;2023-11-19T00:13:01;16.70;99.90
6536;DHT22;34330;52.08032700;5.40923460;2023-11-19T00:15:31;16.50;99.90
6536;DHT22;34330;52.08032700;5.40923460;2023-11-19T00:17:58;16.50;99.90
6536;DHT22;34330;52.08032700;5.40923460;2023-11-19T00:20:29;16.50;99.90
6536;DHT22;34330;52.08032700;5.40923460;2023-11-19T00:22:57;16.50;99.90
6536;DHT22;34330;52.08032700;5.40923460;2023-11-19T00:25:25;16.50;99.90
6536;DHT22;34330;52.08032700;5.40923460;2023-11-19T00:27:53;16.70;99.90
6536;DHT22;34330;52.08032700;5.40923460;2023-11-19T00:30:24;16.50;99.90
6536;DHT22;34330;52.08032700;5.40923460;2023-11-19T00:32:52;16.50;99.90
6536;DHT22;34330;52.08032700;5.40923460;2023-11-19T00:35:20;16.50;99.90
6536;DHT22;34330;52.08032700;5.40923460;2023-11-19T00:37:48;16.50;99.90
6536;DHT22;34330;52.08032700;5.40923460;2023-11-19T00:40:16;16.60;99.90
6536;DHT22;34330;52.08032700;5.40923460;2023-11-19T00:42:45;16.50;99.90
6536;DHT22;34330;52.08032700;5.40923460;2023-11-19T00:45:16;16.50;99.90
6536;DHT22;34330;52.08032700;5.40923460;2023-11-19T00:47:45;16.50;99.90
6536;DHT22;34330;52.08032700;5.40923460;2023-11-19T00:50:14;16.50;99.90
6536;DHT22;34330;52.08032700;5.40923460;2023-11-19T00:52:42;16.50;99.90
6536;DHT22;34330;52.08032700;5.40923460;2023-11-19T00:55:10;16.50;99.90
6536;DHT22;34330;52.08032700;5.40923460;2023-11-19T00:57:38;16.50;99.90
6536;DHT22;34330;52.08032700;5.40923460;2023-11-19T01:00:07;16.50;99.90
6536;DHT22;34330;52.08032700;5.40923460;2023-11-19T01:02:46;16.50;99.90
6536;DHT22;34330;52.08032700;5.40923460;2023-11-19T01:05:18;16.50;99.90
6536;DHT22;34330;52.08032700;5.40923460;2023-11-19T01:07:48;16.50;99.90
6536;DHT22;34330;52.08032700;5.40923460;2023-11-19T01:10:17;16.50;99.90
6536;DHT22;34330;52.08032700;5.40923460;2023-11-19T01:12:45;16.50;99.90
6536;DHT22;34330;52.08032700;5.40923460;2023-11-19T01:15:14;16.50;99.90
6536;DHT22;34330;52.08032700;5.40923460;2023-11-19T01:17:41;16.50;99.90
6536;DHT22;34330;52.08032700;5.40923460;2023-11-19T01:20:20;16.50;99.90
6536;DHT22;34330;52.08032700;5.40923460;2023-11-19T01:22:48;16.50;99.90
6536;DHT22;34330;52.08032700;5.40923460;2023-11-19T01:25:16;16.50;99.90
6536;DHT22;34330;52.08032700;5.40923460;2023-11-19T01:27:44;16.50;99.90
6536;DHT22;34330;52.08032700;5.40923460;2023-11-19T01:30:13;16.50;99.90
6536;DHT22;34330;52.08032700;5.40923460;2023-11-19T01:32:41;16.50;99.90
6536;DHT22;34330;52.08032700;5.40923460;2023-11-19T01:35:09;16.50;99.90
6536;DHT22;34330;52.08032700;5.40923460;2023-11-19T01:37:39;16.50;99.90
6536;DHT22;34330;52.08032700;5.40923460;2023-11-19T01:40:07;16.50;99.90
6536;DHT22;34330;52.08032700;5.40923460;2023-11-19T01:42:38;16.50;99.90
6536;DHT22;34330;52.08032700;5.40923460;2023-11-19T01:45:07;16.50;99.90
6536;DHT22;34330;52.08032700;5.40923460;2023-11-19T01:47:37;16.50;99.90
6536;DHT22;34330;52.08032700;5.40923460;2023-11-19T01:50:06;16.50;99.90
6536;DHT22;34330;52.08032700;5.40923460;2023-11-19T01:52:35;16.50;99.90
6536;DHT22;34330;52.08032700;5.40923460;2023-11-19T01:55:06;16.50;99.90
6536;DHT22;34330;52.08032700;5.40923460;2023-11-19T01:57:36;16.50;99.90
6536;DHT22;34330;52.08032700;5.40923460;2023-11-19T02:00:06;16.50;99.90
6536;DHT22;34330;52.08032700;5.40923460;2023-11-19T02:02:38;16.50;99.90
6536;DHT22;34330;52.08032700;5.40923460;2023-11-19T02:05:07;16.50;99.90
6536;DHT22;34330;52.08032700;5.40923460;2023-11-19T02:07:35;16.50;99.90
6536;DHT22;34330;52.08032700;5.40923460;2023-11-19T02:10:03;16.50;99.90
6536;DHT22;34330;52.08032700;5.40923460;2023-11-19T02:12:33;16.50;99.90
6536;DHT22;34330;52.08032700;5.40923460;2023-11-19T02:15:03;16.50;99.90
6536;DHT22;34330;52.08032700;5.40923460;2023-11-19T02:17:31;16.40;99.80
6536;DHT22;34330;52.08032700;5.40923460;2023-11-19T02:20:01;16.40;99.80
6536;DHT22;34330;52.08032700;5.40923460;2023-11-19T02:22:30;16.40;99.70
6536;DHT22;34330;52.08032700;5.40923460;2023-11-19T02:25:00;16.40;99.70
6536;DHT22;34330;52.08032700;5.40923460;2023-11-19T02:27:52;16.40;99.60
6536;DHT22;34330;52.08032700;5.40923460;2023-11-19T02:30:23;16.30;99.40
6536;DHT22;34330;52.08032700;5.40923460;2023-11-19T02:32:53;16.30;99.50
6536;DHT22;34330;52.08032700;5.40923460;2023-11-19T02:35:24;16.20;99.50
6536;DHT22;34330;52.08032700;5.40923460;2023-11-19T02:37:53;16.20;99.40
6536;DHT22;34330;52.08032700;5.40923460;2023-11-19T02:40:21;16.20;99.40
6536;DHT22;34330;52.08032700;5.40923460;2023-11-19T02:42:52;16.10;99.40
6536;DHT22;34330;52.08032700;5.40923460;2023-11-19T02:45:22;16.10;99.30
6536;DHT22;34330;52.08032700;5.40923460;2023-11-19T02:47:50;16.10;99.40
6536;DHT22;34330;52.08032700;5.40923460;2023-11-19T02:50:19;16.00;99.30
6536;DHT22;34330;52.08032700;5.40923460;2023-11-19T02:52:53;16.00;99.40
6536;DHT22;34330;52.08032700;5.40923460;2023-11-19T02:55:23;16.00;99.30
6536;DHT22;34330;52.08032700;5.40923460;2023-11-19T02:57:56;15.90;99.30
6536;DHT22;34330;52.08032700;5.40923460;2023-11-19T03:00:26;15.90;99.20
6536;DHT22;34330;52.08032700;5.40923460;2023-11-19T03:03:04;15.90;99.30
6536;DHT22;34330;52.08032700;5.40923460;2023-11-19T03:05:45;15.90;99.30
6536;DHT22;34330;52.08032700;5.40923460;2023-11-19T03:08:14;15.80;99.20
6536;DHT22;34330;52.08032700;5.40923460;2023-11-19T03:10:49;15.70;99.20
6536;DHT22;34330;52.08032700;5.40923460;2023-11-19T03:13:19;15.70;99.10
6536;DHT22;34330;52.08032700;5.40923460;2023-11-19T03:15:47;15.70;99.10
6536;DHT22;34330;52.08032700;5.40923460;2023-11-19T03:18:15;15.70;99.20
6536;DHT22;34330;52.08032700;5.40923460;2023-11-19T03:20:43;15.60;99.10
6536;DHT22;34330;52.08032700;5.40923460;2023-11-19T03:23:11;15.60;99.10
6536;DHT22;34330;52.08032700;5.40923460;2023-11-19T03:25:39;15.60;99.20
6536;DHT22;34330;52.08032700;5.40923460;2023-11-19T03:28:07;15.50;99.10
6536;DHT22;34330;52.08032700;5.40923460;2023-11-19T03:30:36;15.50;99.10
6536;DHT22;34330;52.08032700;5.40923460;2023-11-19T03:33:04;15.50;99.10
6536;DHT22;34330;52.08032700;5.40923460;2023-11-19T03:35:32;15.40;99.10
6536;DHT22;34330;52.08032700;5.40923460;2023-11-19T03:38:00;15.40;99.10
6536;DHT22;34330;52.08032700;5.40923460;2023-11-19T03:40:29;15.40;99.10
6536;DHT22;34330;52.08032700;5.40923460;2023-11-19T03:42:57;15.30;99.00
6536;DHT22;34330;52.08032700;5.40923460;2023-11-19T03:45:25;15.30;99.10
6536;DHT22;34330;52.08032700;5.40923460;2023-11-19T03:47:55;15.30;99.00
6536;DHT22;34330;52.08032700;5.40923460;2023-11-19T03:50:23;15.30;99.00
6536;DHT22;34330;52.08032700;5.40923460;2023-11-19T03:52:51;15.20;99.00
6536;DHT22;34330;52.08032700;5.40923460;2023-11-19T03:55:19;15.20;99.00
6536;DHT22;34330;52.08032700;5.40923460;2023-11-19T03:57:47;15.20;99.00
6536;DHT22;34330;52.08032700;5.40923460;2023-11-19T04:00:15;15.20;99.00
6536;DHT22;34330;52.08032700;5.40923460;2023-11-19T04:02:43;15.10;98.90
6536;DHT22;34330;52.08032700;5.40923460;2023-11-19T04:05:15;15.10;98.90
6536;DHT22;34330;52.08032700;5.40923460;2023-11-19T04:07:45;15.10;98.90
6536;DHT22;34330;52.08032700;5.40923460;2023-11-19T04:10:13;15.10;98.90
6536;DHT22;34330;52.08032700;5.40923460;2023-11-19T04:12:43;13.70;98.20
6536;DHT22;34330;52.08032700;5.40923460;2023-11-19T04:15:11;15.00;98.90
6536;DHT22;34330;52.08032700;5.40923460;2023-11-19T04:17:40;15.00;98.90
6536;DHT22;34330;52.08032700;5.40923460;2023-11-19T04:20:08;15.00;99.00
6536;DHT22;34330;52.08032700;5.40923460;2023-11-19T04:22:40;15.00;99.00
6536;DHT22;34330;52.08032700;5.40923460;2023-11-19T04:25:08;14.90;99.00
6536;DHT22;34330;52.08032700;5.40923460;2023-11-19T04:27:37;14.90;98.90
6536;DHT22;34330;52.08032700;5.40923460;2023-11-19T04:30:06;15.10;99.00
6536;DHT22;34330;52.08032700;5.40923460;2023-11-19T04:32:37;14.90;98.90
6536;DHT22;34330;52.08032700;5.40923460;2023-11-19T04:35:07;14.90;98.90
6536;DHT22;34330;52.08032700;5.40923460;2023-11-19T04:37:35;14.90;98.90
6536;DHT22;34330;52.08032700;5.40923460;2023-11-19T04:40:06;14.90;98.80
6536;DHT22;34330;52.08032700;5.40923460;2023-11-19T04:42:34;14.80;98.80
6536;DHT22;34330;52.08032700;5.40923460;2023-11-19T04:45:02;14.80;98.80
6536;DHT22;34330;52.08032700;5.40923460;2023-11-19T04:47:32;14.80;98.80
6536;DHT22;34330;52.08032700;5.40923460;2023-11-19T04:50:01;14.80;98.70
6536;DHT22;34330;52.08032700;5.40923460;2023-11-19T04:52:29;14.80;98.70
6536;DHT22;34330;52.08032700;5.40923460;2023-11-19T04:54:57;14.70;98.60
6536;DHT22;34330;52.08032700;5.40923460;2023-11-19T04:57:27;14.70;98.60
6536;DHT22;34330;52.08032700;5.40923460;2023-11-19T04:59:55;14.70;98.60
6536;DHT22;34330;52.08032700;5.40923460;2023-11-19T05:02:23;14.70;98.50
6536;DHT22;34330;52.08032700;5.40923460;2023-11-19T05:04:51;14.70;98.50
6536;DHT22;34330;52.08032700;5.40923460;2023-11-19T05:07:19;14.70;98.50
6536;DHT22;34330;52.08032700;5.40923460;2023-11-19T05:09:47;14.70;98.50
6536;DHT22;34330;52.08032700;5.40923460;2023-11-19T05:12:15;14.70;98.50
6536;DHT22;34330;52.08032700;5.40923460;2023-11-19T05:14:44;14.60;98.40
6536;DHT22;34330;52.08032700;5.40923460;2023-11-19T05:17:17;14.60;98.40
6536;DHT22;34330;52.08032700;5.40923460;2023-11-19T05:19:45;14.60;98.40
6536;DHT22;34330;52.08032700;5.40923460;2023-11-19T05:22:15;14.60;98.30
6536;DHT22;34330;52.08032700;5.40923460;2023-11-19T05:24:43;14.60;98.40
6536;DHT22;34330;52.08032700;5.40923460;2023-11-19T05:27:11;14.60;98.30
6536;DHT22;34330;52.08032700;5.40923460;2023-11-19T05:29:40;14.60;98.60
6536;DHT22;34330;52.08032700;5.40923460;2023-11-19T05:32:11;14.60;98.30
6536;DHT22;34330;52.08032700;5.40923460;2023-11-19T05:34:39;14.50;98.30
6536;DHT22;34330;52.08032700;5.40923460;2023-11-19T05:37:10;14.50;98.30
6536;DHT22;34330;52.08032700;5.40923460;2023-11-19T05:39:37;14.50;98.30
6536;DHT22;34330;52.08032700;5.40923460;2023-11-19T05:42:05;14.50;98.30
6536;DHT22;34330;52.08032700;5.40923460;2023-11-19T05:44:33;14.50;98.30
6536;DHT22;34330;52.08032700;5.40923460;2023-11-19T05:47:05;14.50;98.30
6536;DHT22;34330;52.08032700;5.40923460;2023-11-19T05:49:35;14.50;98.30
6536;DHT22;34330;52.08032700;5.40923460;2023-11-19T05:52:03;14.50;98.20
6536;DHT22;34330;52.08032700;5.40923460;2023-11-19T05:54:34;14.50;98.30
6536;DHT22;34330;52.08032700;5.40923460;2023-11-19T05:57:04;14.50;98.30
6536;DHT22;34330;52.08032700;5.40923460;2023-11-19T05:59:33;14.50;98.30
6536;DHT22;34330;52.08032700;5.40923460;2023-11-19T06:02:02;14.40;98.30
6536;DHT22;34330;52.08032700;5.40923460;2023-11-19T06:04:30;14.40;98.30
6536;DHT22;34330;52.08032700;5.40923460;2023-11-19T06:07:00;14.40;98.30
6536;DHT22;34330;52.08032700;5.40923460;2023-11-19T06:09:28;14.40;98.30
6536;DHT22;34330;52.08032700;5.40923460;2023-11-19T06:11:56;14.40;98.30
6536;DHT22;34330;52.08032700;5.40923460;2023-11-19T06:14:24;14.40;98.30
6536;DHT22;34330;52.08032700;5.40923460;2023-11-19T06:16:52;14.40;98.30
6536;DHT22;34330;52.08032700;5.40923460;2023-11-19T06:19:20;14.40;98.30
6536;DHT22;34330;52.08032700;5.40923460;2023-11-19T06:21:48;14.40;98.30
6536;DHT22;34330;52.08032700;5.40923460;2023-11-19T06:24:17;14.40;98.40
6536;DHT22;34330;52.08032700;5.40923460;2023-11-19T06:26:45;14.40;98.40
6536;DHT22;34330;52.08032700;5.40923460;2023-11-19T06:29:13;14.40;98.40
6536;DHT22;34330;52.08032700;5.40923460;2023-11-19T06:31:45;14.30;98.30
6536;DHT22;34330;52.08032700;5.40923460;2023-11-19T06:34:15;14.30;98.30
6536;DHT22;34330;52.08032700;5.40923460;2023-11-19T06:36:43;14.30;98.30
6536;DHT22;34330;52.08032700;5.40923460;2023-11-19T06:39:11;14.30;98.30
6536;DHT22;34330;52.08032700;5.40923460;2023-11-19T06:41:44;14.30;98.30
6536;DHT22;34330;52.08032700;5.40923460;2023-11-19T06:44:12;14.30;98.30
6536;DHT22;34330;52.08032700;5.40923460;2023-11-19T06:46:41;14.30;98.10
6536;DHT22;34330;52.08032700;5.40923460;2023-11-19T06:49:09;14.30;98.30
6536;DHT22;34330;52.08032700;5.40923460;2023-11-19T06:51:41;14.30;98.30
6536;DHT22;34330;52.08032700;5.40923460;2023-11-19T06:54:10;14.30;98.30
6536;DHT22;34330;52.08032700;5.40923460;2023-11-19T06:56:39;14.30;98.30
6536;DHT22;34330;52.08032700;5.40923460;2023-11-19T06:59:09;14.30;98.30
6536;DHT22;34330;52.08032700;5.40923460;2023-11-19T07:01:37;14.30;98.30
6536;DHT22;34330;52.08032700;5.40923460;2023-11-19T07:04:05;14.30;98.30
6536;DHT22;34330;52.08032700;5.40923460;2023-11-19T07:06:36;14.30;98.30
6536;DHT22;34330;52.08032700;5.40923460;2023-11-19T07:09:04;14.30;98.20
6536;DHT22;34330;52.08032700;5.40923460;2023-11-19T07:11:36;14.30;98.20
6536;DHT22;34330;52.08032700;5.40923460;2023-11-19T07:14:07;14.30;98.30
6536;DHT22;34330;52.08032700;5.40923460;2023-11-19T07:16:36;14.30;98.30
6536;DHT22;34330;52.08032700;5.40923460;2023-11-19T07:19:05;14.20;98.30
6536;DHT22;34330;52.08032700;5.40923460;2023-11-19T07:21:33;14.20;98.20
6536;DHT22;34330;52.08032700;5.40923460;2023-11-19T07:24:02;14.30;98.30
6536;DHT22;34330;52.08032700;5.40923460;2023-11-19T07:26:32;14.20;98.30
6536;DHT22;34330;52.08032700;5.40923460;2023-11-19T07:29:00;14.30;98.20
6536;DHT22;34330;52.08032700;5.40923460;2023-11-19T07:31:30;14.30;98.30
6536;DHT22;34330;52.08032700;5.40923460;2023-11-19T07:33:58;14.30;98.30
6536;DHT22;34330;52.08032700;5.40923460;2023-11-19T07:36:26;14.30;98.30
6536;DHT22;34330;52.08032700;5.40923460;2023-11-19T07:38:53;14.30;98.20
6536;DHT22;34330;52.08032700;5.40923460;2023-11-19T07:41:24;14.30;98.30
6536;DHT22;34330;52.08032700;5.40923460;2023-11-19T07:43:52;14.30;98.30
6536;DHT22;34330;52.08032700;5.40923460;2023-11-19T07:46:21;14.30;98.20
6536;DHT22;34330;52.08032700;5.40923460;2023-11-19T07:48:50;14.30;98.30
6536;DHT22;34330;52.08032700;5.40923460;2023-11-19T07:51:18;14.30;98.30
6536;DHT22;34330;52.08032700;5.40923460;2023-11-19T07:53:46;14.30;98.60
6536;DHT22;34330;52.08032700;5.40923460;2023-11-19T07:56:15;14.30;98.20
6536;DHT22;34330;52.08032700;5.40923460;2023-11-19T07:58:43;14.30;98.30
6536;DHT22;34330;52.08032700;5.40923460;2023-11-19T08:01:11;14.30;98.40
6536;DHT22;34330;52.08032700;5.40923460;2023-11-19T08:03:40;14.30;98.40
6536;DHT22;34330;52.08032700;5.40923460;2023-11-19T08:06:26;14.30;98.40
6536;DHT22;34330;52.08032700;5.40923460;2023-11-19T08:08:54;14.30;98.40
6536;DHT22;34330;52.08032700;5.40923460;2023-11-19T08:11:22;14.40;98.40
6536;DHT22;34330;52.08032700;5.40923460;2023-11-19T08:13:50;14.40;98.50
6536;DHT22;34330;52.08032700;5.40923460;2023-11-19T08:16:18;14.40;98.60
6536;DHT22;34330;52.08032700;5.40923460;2023-11-19T08:18:46;14.40;98.60
6536;DHT22;34330;52.08032700;5.40923460;2023-11-19T08:21:15;14.40;98.50
6536;DHT22;34330;52.08032700;5.40923460;2023-11-19T08:23:44;14.50;98.60
6536;DHT22;34330;52.08032700;5.40923460;2023-11-19T08:26:12;14.50;98.60
6536;DHT22;34330;52.08032700;5.40923460;2023-11-19T08:28:45;14.50;98.50
6536;DHT22;34330;52.08032700;5.40923460;2023-11-19T08:31:13;14.60;98.50
6536;DHT22;34330;52.08032700;5.40923460;2023-11-19T08:33:41;15.60;98.80
6536;DHT22;34330;52.08032700;5.40923460;2023-11-19T08:36:15;14.60;98.40
6536;DHT22;34330;52.08032700;5.40923460;2023-11-19T08:38:44;14.60;98.30
6536;DHT22;34330;52.08032700;5.40923460;2023-11-19T08:41:13;14.60;98.30
6536;DHT22;34330;52.08032700;5.40923460;2023-11-19T08:43:41;14.60;98.20
6536;DHT22;34330;52.08032700;5.40923460;2023-11-19T08:46:09;14.60;98.60
6536;DHT22;34330;52.08032700;5.40923460;2023-11-19T08:48:38;14.60;98.30
6536;DHT22;34330;52.08032700;5.40923460;2023-11-19T08:51:06;14.70;98.30
6536;DHT22;34330;52.08032700;5.40923460;2023-11-19T08:53:34;14.70;98.60
6536;DHT22;34330;52.08032700;5.40923460;2023-11-19T08:56:04;14.70;98.30
6536;DHT22;34330;52.08032700;5.40923460;2023-11-19T08:58:32;14.70;98.20
6536;DHT22;34330;52.08032700;5.40923460;2023-11-19T09:01:00;14.70;98.30
6536;DHT22;34330;52.08032700;5.40923460;2023-11-19T09:03:31;14.80;98.20
6536;DHT22;34330;52.08032700;5.40923460;2023-11-19T09:06:00;14.80;98.20
6536;DHT22;34330;52.08032700;5.40923460;2023-11-19T09:08:28;14.80;98.10
6536;DHT22;34330;52.08032700;5.40923460;2023-11-19T09:10:56;14.90;98.20
6536;DHT22;34330;52.08032700;5.40923460;2023-11-19T09:13:25;14.90;98.10
6536;DHT22;34330;52.08032700;5.40923460;2023-11-19T09:15:53;14.90;98.10
6536;DHT22;34330;52.08032700;5.40923460;2023-11-19T09:18:24;14.90;98.10
6536;DHT22;34330;52.08032700;5.40923460;2023-11-19T09:20:52;15.00;98.00
6536;DHT22;34330;52.08032700;5.40923460;2023-11-19T09:23:21;15.00;98.00
6536;DHT22;34330;52.08032700;5.40923460;2023-11-19T09:25:49;15.00;97.90
6536;DHT22;34330;52.08032700;5.40923460;2023-11-19T09:28:17;15.10;97.70
6536;DHT22;34330;52.08032700;5.40923460;2023-11-19T09:30:46;15.10;97.80
6536;DHT22;34330;52.08032700;5.40923460;2023-11-19T09:33:14;15.10;97.80
6536;DHT22;34330;52.08032700;5.40923460;2023-11-19T09:35:42;15.10;97.80
6536;DHT22;34330;52.08032700;5.40923460;2023-11-19T09:38:09;15.10;97.60
6536;DHT22;34330;52.08032700;5.40923460;2023-11-19T09:40:39;15.20;97.80
6536;DHT22;34330;52.08032700;5.40923460;2023-11-19T09:43:07;15.30;97.70
6536;DHT22;34330;52.08032700;5.40923460;2023-11-19T09:45:50;15.20;97.70
6536;DHT22;34330;52.08032700;5.40923460;2023-11-19T09:48:18;15.20;97.60
6536;DHT22;34330;52.08032700;5.40923460;2023-11-19T09:50:47;15.20;97.70
6536;DHT22;34330;52.08032700;5.40923460;2023-11-19T09:53:16;15.30;97.70
6536;DHT22;34330;52.08032700;5.40923460;2023-11-19T09:55:45;15.30;97.60
6536;DHT22;34330;52.08032700;5.40923460;2023-11-19T09:58:14;15.40;97.70
6536;DHT22;34330;52.08032700;5.40923460;2023-11-19T10:00:43;15.40;97.60
6536;DHT22;34330;52.08032700;5.40923460;2023-11-19T10:03:23;15.40;97.50
6536;DHT22;34330;52.08032700;5.40923460;2023-11-19T10:05:51;15.40;97.40
6536;DHT22;34330;52.08032700;5.40923460;2023-11-19T10:08:19;15.50;97.40
6536;DHT22;34330;52.08032700;5.40923460;2023-11-19T10:10:47;15.50;97.30
6536;DHT22;34330;52.08032700;5.40923460;2023-11-19T10:13:16;15.50;97.30
6536;DHT22;34330;52.08032700;5.40923460;2023-11-19T10:15:44;15.60;97.30
6536;DHT22;34330;52.08032700;5.40923460;2023-11-19T10:18:14;15.60;97.20
6536;DHT22;34330;52.08032700;5.40923460;2023-11-19T10:20:43;15.60;97.20
6536;DHT22;34330;52.08032700;5.40923460;2023-11-19T10:23:11;15.60;97.20
6536;DHT22;34330;52.08032700;5.40923460;2023-11-19T10:25:39;15.60;97.10
6536;DHT22;34330;52.08032700;5.40923460;2023-11-19T10:28:07;15.60;97.10
6536;DHT22;34330;52.08032700;5.40923460;2023-11-19T10:30:35;15.70;97.10
6536;DHT22;34330;52.08032700;5.40923460;2023-11-19T10:33:05;15.70;97.10
6536;DHT22;34330;52.08032700;5.40923460;2023-11-19T10:35:35;15.70;97.00
6536;DHT22;34330;52.08032700;5.40923460;2023-11-19T10:38:14;15.80;97.00
6536;DHT22;34330;52.08032700;5.40923460;2023-11-19T10:40:43;15.80;96.80
6536;DHT22;34330;52.08032700;5.40923460;2023-11-19T10:43:11;15.90;96.90
6536;DHT22;34330;52.08032700;5.40923460;2023-11-19T10:45:39;15.90;96.80
6536;DHT22;34330;52.08032700;5.40923460;2023-11-19T10:48:07;15.90;96.70
6536;DHT22;34330;52.08032700;5.40923460;2023-11-19T10:50:38;16.00;96.90
6536;DHT22;34330;52.08032700;5.40923460;2023-11-19T10:53:10;16.00;96.70
6536;DHT22;34330;52.08032700;5.40923460;2023-11-19T10:55:39;16.00;96.50
6536;DHT22;34330;52.08032700;5.40923460;2023-11-19T10:58:08;16.00;96.50
6536;DHT22;34330;52.08032700;5.40923460;2023-11-19T11:00:39;16.10;96.60
6536;DHT22;34330;52.08032700;5.40923460;2023-11-19T11:03:11;16.10;96.50
6536;DHT22;34330;52.08032700;5.40923460;2023-11-19T11:05:43;16.10;96.40
6536;DHT22;34330;52.08032700;5.40923460;2023-11-19T11:08:16;16.20;96.40
6536;DHT22;34330;52.08032700;5.40923460;2023-11-19T11:10:45;16.20;96.30
6536;DHT22;34330;52.08032700;5.40923460;2023-11-19T11:13:22;16.20;96.30
6536;DHT22;34330;52.08032700;5.40923460;2023-11-19T11:15:51;16.20;96.20
6536;DHT22;34330;52.08032700;5.40923460;2023-11-19T11:18:21;16.30;96.10
6536;DHT22;34330;52.08032700;5.40923460;2023-11-19T11:20:51;16.30;96.10
6536;DHT22;34330;52.08032700;5.40923460;2023-11-19T11:23:52;16.30;96.10
6536;DHT22;34330;52.08032700;5.40923460;2023-11-19T11:26:51;16.30;95.80
6536;DHT22;34330;52.08032700;5.40923460;2023-11-19T11:29:26;16.30;95.80
6536;DHT22;34330;52.08032700;5.40923460;2023-11-19T11:32:02;16.30;95.90
6536;DHT22;34330;52.08032700;5.40923460;2023-11-19T11:34:58;16.60;95.90
6536;DHT22;34330;52.08032700;5.40923460;2023-11-19T11:37:32;16.40;95.70
6536;DHT22;34330;52.08032700;5.40923460;2023-11-19T11:40:03;16.40;95.80
6536;DHT22;34330;52.08032700;5.40923460;2023-11-19T11:42:37;16.40;95.80
6536;DHT22;34330;52.08032700;5.40923460;2023-11-19T11:45:06;16.40;95.80
6536;DHT22;34330;52.08032700;5.40923460;2023-11-19T11:48:09;16.40;95.90
6536;DHT22;34330;52.08032700;5.40923460;2023-11-19T11:50:56;16.40;95.70
6536;DHT22;34330;52.08032700;5.40923460;2023-11-19T11:53:25;16.40;95.60
6536;DHT22;34330;52.08032700;5.40923460;2023-11-19T11:55:59;16.40;95.90
6536;DHT22;34330;52.08032700;5.40923460;2023-11-19T11:58:34;16.30;95.70
6536;DHT22;34330;52.08032700;5.40923460;2023-11-19T12:01:04;16.50;95.70
6536;DHT22;34330;52.08032700;5.40923460;2023-11-19T12:03:33;16.50;95.60
6536;DHT22;34330;52.08032700;5.40923460;2023-11-19T12:06:02;16.50;95.60
6536;DHT22;34330;52.08032700;5.40923460;2023-11-19T12:08:30;16.50;95.50
6536;DHT22;34330;52.08032700;5.40923460;2023-11-19T12:11:01;16.50;95.50
6536;DHT22;34330;52.08032700;5.40923460;2023-11-19T12:13:53;16.50;95.30
6536;DHT22;34330;52.08032700;5.40923460;2023-11-19T12:16:22;16.50;95.20
6536;DHT22;34330;52.08032700;5.40923460;2023-11-19T12:18:54;16.50;95.50
6536;DHT22;34330;52.08032700;5.40923460;2023-11-19T12:21:29;16.50;95.20
6536;DHT22;34330;52.08032700;5.40923460;2023-11-19T12:23:58;16.50;95.10
6536;DHT22;34330;52.08032700;5.40923460;2023-11-19T12:26:39;16.50;95.20
6536;DHT22;34330;52.08032700;5.40923460;2023-11-19T12:29:08;16.40;95.00
6536;DHT22;34330;52.08032700;5.40923460;2023-11-19T12:31:36;16.50;95.10
6536;DHT22;34330;52.08032700;5.40923460;2023-11-19T12:34:09;16.50;95.00
6536;DHT22;34330;52.08032700;5.40923460;2023-11-19T12:36:40;16.50;95.10
6536;DHT22;34330;52.08032700;5.40923460;2023-11-19T12:39:11;16.50;95.10
6536;DHT22;34330;52.08032700;5.40923460;2023-11-19T12:41:53;16.50;95.10
6536;DHT22;34330;52.08032700;5.40923460;2023-11-19T12:44:22;16.50;94.90
6536;DHT22;34330;52.08032700;5.40923460;2023-11-19T12:47:03;16.50;95.10
6536;DHT22;34330;52.08032700;5.40923460;2023-11-19T12:49:33;16.50;95.10
6536;DHT22;34330;52.08032700;5.40923460;2023-11-19T12:52:01;16.60;95.30
6536;DHT22;34330;52.08032700;5.40923460;2023-11-19T12:54:34;16.50;95.20
6536;DHT22;34330;52.08032700;5.40923460;2023-11-19T12:57:05;16.60;95.10
6536;DHT22;34330;52.08032700;5.40923460;2023-11-19T12:59:33;16.60;95.10
6536;DHT22;34330;52.08032700;5.40923460;2023-11-19T13:02:01;16.60;95.10
6536;DHT22;34330;52.08032700;5.40923460;2023-11-19T13:04:32;16.60;94.90
6536;DHT22;34330;52.08032700;5.40923460;2023-11-19T13:07:01;16.60;94.90
6536;DHT22;34330;52.08032700;5.40923460;2023-11-19T13:09:32;16.60;94.70
6536;DHT22;34330;52.08032700;5.40923460;2023-11-19T13:12:14;16.60;94.70
6536;DHT22;34330;52.08032700;5.40923460;2023-11-19T13:14:42;16.60;94.40
6536;DHT22;34330;52.08032700;5.40923460;2023-11-19T13:17:15;16.60;94.50
6536;DHT22;34330;52.08032700;5.40923460;2023-11-19T13:19:43;16.60;94.50
6536;DHT22;34330;52.08032700;5.40923460;2023-11-19T13:22:14;16.60;94.60
6536;DHT22;34330;52.08032700;5.40923460;2023-11-19T13:24:42;16.60;94.60
6536;DHT22;34330;52.08032700;5.40923460;2023-11-19T13:27:10;16.60;94.70
6536;DHT22;34330;52.08032700;5.40923460;2023-11-19T13:29:39;16.60;94.70
6536;DHT22;34330;52.08032700;5.40923460;2023-11-19T13:32:07;16.60;94.90
6536;DHT22;34330;52.08032700;5.40923460;2023-11-19T13:34:36;16.50;94.90
6536;DHT22;34330;52.08032700;5.40923460;2023-11-19T13:37:04;16.50;95.10
6536;DHT22;34330;52.08032700;5.40923460;2023-11-19T13:39:32;16.50;95.20
6536;DHT22;34330;52.08032700;5.40923460;2023-11-19T13:42:00;16.40;95.30
6536;DHT22;34330;52.08032700;5.40923460;2023-11-19T13:44:31;16.40;95.50
6536;DHT22;34330;52.08032700;5.40923460;2023-11-19T13:47:00;16.30;95.50
6536;DHT22;34330;52.08032700;5.40923460;2023-11-19T13:49:29;16.30;95.60